sensor_id;sensor_type;location;lat;lon;timestamp;temperature;humidity
7240;DHT22;3661;53.288;10.458;2022-09-16T00:02:25;11.10;99.90
7240;DHT22;3661;53.288;10.458;2022-09-16T00:04:57;11.10;99.90
7240;DHT22;3661;53.288;10.458;2022-09-16T00:07:30;11.00;99.90
7240;DHT22;3661;53.288;10.458;2022-09-16T00:10:03;11.00;99.90
7240;DHT22;3661;53.288;10.458;2022-09-16T00:12:35;11.00;99.90
7240;DHT22;3661;53.288;10.458;2022-09-16T00:15:08;11.00;99.90
7240;DHT22;3661;53.288;10.458;2022-09-16T00:17:41;11.00;99.90
7240;DHT22;3661;53.288;10.458;2022-09-16T00:20:13;10.90;99.90
7240;DHT22;3661;53.288;10.458;2022-09-16T00:22:47;10.90;99.90
7240;DHT22;3661;53.288;10.458;2022-09-16T00:25:19;10.90;99.90
7240;DHT22;3661;53.288;10.458;2022-09-16T00:27:52;10.90;99.90
7240;DHT22;3661;53.288;10.458;2022-09-16T00:30:24;10.90;99.90
7240;DHT22;3661;53.288;10.458;2022-09-16T00:32:56;10.90;99.90
7240;DHT22;3661;53.288;10.458;2022-09-16T00:35:28;11.00;99.90
7240;DHT22;3661;53.288;10.458;2022-09-16T00:38:02;11.00;99.90
7240;DHT22;3661;53.288;10.458;2022-09-16T00:40:34;11.00;99.90
7240;DHT22;3661;53.288;10.458;2022-09-16T00:43:14;11.00;99.90
7240;DHT22;3661;53.288;10.458;2022-09-16T00:45:50;11.00;99.90
7240;DHT22;3661;53.288;10.458;2022-09-16T00:48:27;11.00;99.90
7240;DHT22;3661;53.288;10.458;2022-09-16T00:51:03;11.00;99.90
7240;DHT22;3661;53.288;10.458;2022-09-16T00:53:41;10.90;99.90
7240;DHT22;3661;53.288;10.458;2022-09-16T00:56:23;10.90;99.90
7240;DHT22;3661;53.288;10.458;2022-09-16T00:59:03;10.90;99.90
7240;DHT22;3661;53.288;10.458;2022-09-16T01:01:38;10.90;99.90
7240;DHT22;3661;53.288;10.458;2022-09-16T01:04:15;10.90;99.90
7240;DHT22;3661;53.288;10.458;2022-09-16T01:06:49;10.90;99.90
7240;DHT22;3661;53.288;10.458;2022-09-16T01:09:30;10.90;99.90
7240;DHT22;3661;53.288;10.458;2022-09-16T01:12:03;10.80;99.90
7240;DHT22;3661;53.288;10.458;2022-09-16T01:14:35;10.80;99.90
7240;DHT22;3661;53.288;10.458;2022-09-16T01:17:43;10.80;99.90
7240;DHT22;3661;53.288;10.458;2022-09-16T01:27:09;10.70;99.90
7240;DHT22;3661;53.288;10.458;2022-09-16T01:30:13;10.70;99.90
7240;DHT22;3661;53.288;10.458;2022-09-16T01:32:57;10.70;99.90
7240;DHT22;3661;53.288;10.458;2022-09-16T01:35:41;10.70;99.90
7240;DHT22;3661;53.288;10.458;2022-09-16T01:38:26;10.70;99.90
7240;DHT22;3661;53.288;10.458;2022-09-16T01:41:08;10.70;99.90
7240;DHT22;3661;53.288;10.458;2022-09-16T01:43:46;10.70;99.90
7240;DHT22;3661;53.288;10.458;2022-09-16T01:46:33;10.70;99.90
7240;DHT22;3661;53.288;10.458;2022-09-16T01:49:16;10.70;99.90
7240;DHT22;3661;53.288;10.458;2022-09-16T01:51:53;10.70;99.90
7240;DHT22;3661;53.288;10.458;2022-09-16T01:54:36;10.60;99.90
7240;DHT22;3661;53.288;10.458;2022-09-16T01:57:14;10.60;99.90
7240;DHT22;3661;53.288;10.458;2022-09-16T01:59:51;10.60;99.90
7240;DHT22;3661;53.288;10.458;2022-09-16T02:02:29;10.60;99.90
7240;DHT22;3661;53.288;10.458;2022-09-16T02:05:08;10.60;99.90
7240;DHT22;3661;53.288;10.458;2022-09-16T02:07:46;10.60;99.90
7240;DHT22;3661;53.288;10.458;2022-09-16T02:10:25;10.50;99.90
7240;DHT22;3661;53.288;10.458;2022-09-16T02:13:05;10.50;99.90
7240;DHT22;3661;53.288;10.458;2022-09-16T02:15:40;10.50;99.90
7240;DHT22;3661;53.288;10.458;2022-09-16T02:18:17;10.50;99.90
7240;DHT22;3661;53.288;10.458;2022-09-16T02:20:53;10.50;99.90
7240;DHT22;3661;53.288;10.458;2022-09-16T02:23:29;10.60;99.90
7240;DHT22;3661;53.288;10.458;2022-09-16T02:26:03;10.60;99.90
7240;DHT22;3661;53.288;10.458;2022-09-16T02:28:39;10.50;99.90
7240;DHT22;3661;53.288;10.458;2022-09-16T02:31:12;10.60;99.90
7240;DHT22;3661;53.288;10.458;2022-09-16T02:33:50;10.50;99.90
7240;DHT22;3661;53.288;10.458;2022-09-16T02:36:26;10.50;99.90
7240;DHT22;3661;53.288;10.458;2022-09-16T02:39:03;10.50;99.90
7240;DHT22;3661;53.288;10.458;2022-09-16T02:41:39;10.60;99.90
7240;DHT22;3661;53.288;10.458;2022-09-16T02:44:12;10.50;99.90
7240;DHT22;3661;53.288;10.458;2022-09-16T02:46:52;10.50;99.90
7240;DHT22;3661;53.288;10.458;2022-09-16T02:49:33;10.50;99.90
7240;DHT22;3661;53.288;10.458;2022-09-16T02:52:16;10.50;99.90
7240;DHT22;3661;53.288;10.458;2022-09-16T02:55:04;10.50;99.90
7240;DHT22;3661;53.288;10.458;2022-09-16T02:57:36;10.50;99.90
7240;DHT22;3661;53.288;10.458;2022-09-16T03:00:11;10.50;99.90
7240;DHT22;3661;53.288;10.458;2022-09-16T03:02:43;10.50;99.90
7240;DHT22;3661;53.288;10.458;2022-09-16T03:05:16;10.50;99.90
7240;DHT22;3661;53.288;10.458;2022-09-16T03:07:53;10.50;99.90
7240;DHT22;3661;53.288;10.458;2022-09-16T03:10:31;10.50;99.90
7240;DHT22;3661;53.288;10.458;2022-09-16T03:13:12;10.50;99.90
7240;DHT22;3661;53.288;10.458;2022-09-16T03:15:56;10.50;99.90
7240;DHT22;3661;53.288;10.458;2022-09-16T03:18:55;10.40;99.90
7240;DHT22;3661;53.288;10.458;2022-09-16T03:21:37;10.40;99.90
7240;DHT22;3661;53.288;10.458;2022-09-16T03:24:21;10.40;99.90
7240;DHT22;3661;53.288;10.458;2022-09-16T03:27:01;10.40;99.90
7240;DHT22;3661;53.288;10.458;2022-09-16T03:29:39;10.40;99.90
7240;DHT22;3661;53.288;10.458;2022-09-16T03:32:18;10.40;99.90
7240;DHT22;3661;53.288;10.458;2022-09-16T03:34:52;10.40;99.90
7240;DHT22;3661;53.288;10.458;2022-09-16T03:37:28;10.40;99.90
7240;DHT22;3661;53.288;10.458;2022-09-16T03:40:16;10.40;99.90
7240;DHT22;3661;53.288;10.458;2022-09-16T03:42:49;10.40;99.90
7240;DHT22;3661;53.288;10.458;2022-09-16T03:45:22;10.40;99.90
7240;DHT22;3661;53.288;10.458;2022-09-16T03:47:54;10.40;99.90
7240;DHT22;3661;53.288;10.458;2022-09-16T03:50:26;10.40;99.90
7240;DHT22;3661;53.288;10.458;2022-09-16T03:52:59;10.30;99.90
7240;DHT22;3661;53.288;10.458;2022-09-16T03:55:32;10.30;99.90
7240;DHT22;3661;53.288;10.458;2022-09-16T03:58:06;10.30;99.90
7240;DHT22;3661;53.288;10.458;2022-09-16T04:00:38;10.30;99.90
7240;DHT22;3661;53.288;10.458;2022-09-16T04:03:10;10.30;99.90
7240;DHT22;3661;53.288;10.458;2022-09-16T04:05:43;10.30;99.90
7240;DHT22;3661;53.288;10.458;2022-09-16T04:08:15;10.30;99.90
7240;DHT22;3661;53.288;10.458;2022-09-16T04:10:54;10.30;99.90
7240;DHT22;3661;53.288;10.458;2022-09-16T04:13:29;10.30;99.90
7240;DHT22;3661;53.288;10.458;2022-09-16T04:16:02;10.30;99.90
7240;DHT22;3661;53.288;10.458;2022-09-16T04:18:34;10.30;99.90
7240;DHT22;3661;53.288;10.458;2022-09-16T04:21:08;10.20;99.90
7240;DHT22;3661;53.288;10.458;2022-09-16T04:23:40;10.20;99.90
7240;DHT22;3661;53.288;10.458;2022-09-16T04:26:15;10.20;99.90
7240;DHT22;3661;53.288;10.458;2022-09-16T04:28:48;10.20;99.90
7240;DHT22;3661;53.288;10.458;2022-09-16T04:31:22;10.20;99.90
7240;DHT22;3661;53.288;10.458;2022-09-16T04:33:54;10.20;99.90
7240;DHT22;3661;53.288;10.458;2022-09-16T04:36:27;10.20;99.90
7240;DHT22;3661;53.288;10.458;2022-09-16T04:38:59;10.20;99.90
7240;DHT22;3661;53.288;10.458;2022-09-16T04:41:32;10.20;99.90
7240;DHT22;3661;53.288;10.458;2022-09-16T04:46:56;10.20;99.90
7240;DHT22;3661;53.288;10.458;2022-09-16T04:49:28;10.20;99.90
7240;DHT22;3661;53.288;10.458;2022-09-16T04:52:01;10.20;99.90
7240;DHT22;3661;53.288;10.458;2022-09-16T04:54:33;10.20;99.90
7240;DHT22;3661;53.288;10.458;2022-09-16T04:57:07;10.20;99.90
7240;DHT22;3661;53.288;10.458;2022-09-16T04:59:40;10.20;99.90
7240;DHT22;3661;53.288;10.458;2022-09-16T05:02:12;10.20;99.90
7240;DHT22;3661;53.288;10.458;2022-09-16T05:04:44;10.20;99.90
7240;DHT22;3661;53.288;10.458;2022-09-16T05:07:16;10.20;99.90
7240;DHT22;3661;53.288;10.458;2022-09-16T05:09:49;10.20;99.90
7240;DHT22;3661;53.288;10.458;2022-09-16T05:12:23;10.20;99.90
7240;DHT22;3661;53.288;10.458;2022-09-16T05:14:56;10.20;99.90
7240;DHT22;3661;53.288;10.458;2022-09-16T05:17:28;10.20;99.90
7240;DHT22;3661;53.288;10.458;2022-09-16T05:20:01;10.20;99.90
7240;DHT22;3661;53.288;10.458;2022-09-16T05:22:33;10.20;99.90
7240;DHT22;3661;53.288;10.458;2022-09-16T05:25:06;10.20;99.90
7240;DHT22;3661;53.288;10.458;2022-09-16T05:27:40;10.20;99.90
7240;DHT22;3661;53.288;10.458;2022-09-16T05:30:15;10.20;99.90
7240;DHT22;3661;53.288;10.458;2022-09-16T05:32:52;10.20;99.90
7240;DHT22;3661;53.288;10.458;2022-09-16T05:35:24;10.20;99.90
7240;DHT22;3661;53.288;10.458;2022-09-16T05:37:56;10.20;99.90
7240;DHT22;3661;53.288;10.458;2022-09-16T05:40:31;10.20;99.90
7240;DHT22;3661;53.288;10.458;2022-09-16T05:43:05;10.20;99.90
7240;DHT22;3661;53.288;10.458;2022-09-16T05:45:37;10.20;99.90
7240;DHT22;3661;53.288;10.458;2022-09-16T05:48:10;10.20;99.90
7240;DHT22;3661;53.288;10.458;2022-09-16T05:50:50;10.20;99.90
7240;DHT22;3661;53.288;10.458;2022-09-16T05:53:31;10.30;99.90
7240;DHT22;3661;53.288;10.458;2022-09-16T05:56:07;10.30;99.90
7240;DHT22;3661;53.288;10.458;2022-09-16T05:58:42;10.30;99.90
7240;DHT22;3661;53.288;10.458;2022-09-16T06:01:18;10.30;99.90
7240;DHT22;3661;53.288;10.458;2022-09-16T06:03:52;10.30;99.90
7240;DHT22;3661;53.288;10.458;2022-09-16T06:06:35;10.30;99.90
7240;DHT22;3661;53.288;10.458;2022-09-16T06:09:12;10.30;99.90
7240;DHT22;3661;53.288;10.458;2022-09-16T06:11:54;10.30;99.90
7240;DHT22;3661;53.288;10.458;2022-09-16T06:14:29;10.40;99.90
7240;DHT22;3661;53.288;10.458;2022-09-16T06:17:01;10.40;99.90
7240;DHT22;3661;53.288;10.458;2022-09-16T06:19:34;10.40;99.90
7240;DHT22;3661;53.288;10.458;2022-09-16T06:22:08;10.40;99.90
7240;DHT22;3661;53.288;10.458;2022-09-16T06:24:42;10.40;99.90
7240;DHT22;3661;53.288;10.458;2022-09-16T06:27:15;10.50;99.90
7240;DHT22;3661;53.288;10.458;2022-09-16T06:29:50;10.50;99.90
7240;DHT22;3661;53.288;10.458;2022-09-16T06:32:30;10.50;99.90
7240;DHT22;3661;53.288;10.458;2022-09-16T06:35:08;10.50;99.90
7240;DHT22;3661;53.288;10.458;2022-09-16T06:38:26;10.50;99.90
7240;DHT22;3661;53.288;10.458;2022-09-16T06:41:08;10.50;99.90
7240;DHT22;3661;53.288;10.458;2022-09-16T06:43:42;10.60;99.90
7240;DHT22;3661;53.288;10.458;2022-09-16T06:46:31;10.60;99.90
7240;DHT22;3661;53.288;10.458;2022-09-16T06:49:40;10.60;99.90
7240;DHT22;3661;53.288;10.458;2022-09-16T06:52:29;10.60;99.90
7240;DHT22;3661;53.288;10.458;2022-09-16T06:55:15;10.60;99.90
7240;DHT22;3661;53.288;10.458;2022-09-16T06:57:59;10.70;99.90
7240;DHT22;3661;53.288;10.458;2022-09-16T07:08:49;10.90;99.90
7240;DHT22;3661;53.288;10.458;2022-09-16T07:11:39;10.90;99.90
7240;DHT22;3661;53.288;10.458;2022-09-16T07:14:12;10.90;99.90
7240;DHT22;3661;53.288;10.458;2022-09-16T07:16:46;11.00;99.90
7240;DHT22;3661;53.288;10.458;2022-09-16T07:19:20;11.00;99.90
7240;DHT22;3661;53.288;10.458;2022-09-16T07:21:53;11.00;99.90
7240;DHT22;3661;53.288;10.458;2022-09-16T07:24:29;11.10;99.90
7240;DHT22;3661;53.288;10.458;2022-09-16T07:27:01;11.10;99.90
7240;DHT22;3661;53.288;10.458;2022-09-16T07:29:35;11.20;99.90
7240;DHT22;3661;53.288;10.458;2022-09-16T07:32:10;11.20;99.90
7240;DHT22;3661;53.288;10.458;2022-09-16T07:34:46;11.20;99.90
7240;DHT22;3661;53.288;10.458;2022-09-16T07:37:22;11.30;99.90
7240;DHT22;3661;53.288;10.458;2022-09-16T07:39:56;11.30;99.90
7240;DHT22;3661;53.288;10.458;2022-09-16T07:42:28;11.40;99.90
7240;DHT22;3661;53.288;10.458;2022-09-16T07:45:01;11.40;99.90
7240;DHT22;3661;53.288;10.458;2022-09-16T07:47:37;11.40;99.90
7240;DHT22;3661;53.288;10.458;2022-09-16T07:50:10;11.50;99.90
7240;DHT22;3661;53.288;10.458;2022-09-16T07:52:42;11.50;99.90
7240;DHT22;3661;53.288;10.458;2022-09-16T07:55:16;11.60;99.90
7240;DHT22;3661;53.288;10.458;2022-09-16T07:57:48;11.70;99.90
7240;DHT22;3661;53.288;10.458;2022-09-16T08:00:26;11.70;99.90
7240;DHT22;3661;53.288;10.458;2022-09-16T08:02:59;11.80;99.90
7240;DHT22;3661;53.288;10.458;2022-09-16T08:09:18;12.00;99.90
7240;DHT22;3661;53.288;10.458;2022-09-16T08:11:54;12.10;99.90
7240;DHT22;3661;53.288;10.458;2022-09-16T08:14:26;12.20;99.90
7240;DHT22;3661;53.288;10.458;2022-09-16T08:17:02;12.30;99.90
7240;DHT22;3661;53.288;10.458;2022-09-16T08:19:35;12.40;99.90
7240;DHT22;3661;53.288;10.458;2022-09-16T08:22:08;12.60;99.90
7240;DHT22;3661;53.288;10.458;2022-09-16T08:24:40;12.70;99.90
7240;DHT22;3661;53.288;10.458;2022-09-16T08:27:14;12.90;99.90
7240;DHT22;3661;53.288;10.458;2022-09-16T08:29:48;13.00;99.90
7240;DHT22;3661;53.288;10.458;2022-09-16T08:32:20;13.20;99.90
7240;DHT22;3661;53.288;10.458;2022-09-16T08:38:22;13.50;99.90
7240;DHT22;3661;53.288;10.458;2022-09-16T08:41:03;13.70;99.90
7240;DHT22;3661;53.288;10.458;2022-09-16T08:43:43;13.90;99.90
7240;DHT22;3661;53.288;10.458;2022-09-16T08:46:23;14.00;99.90
7240;DHT22;3661;53.288;10.458;2022-09-16T08:49:14;14.20;99.90
7240;DHT22;3661;53.288;10.458;2022-09-16T08:51:48;14.40;99.90
7240;DHT22;3661;53.288;10.458;2022-09-16T08:54:26;14.60;99.90
7240;DHT22;3661;53.288;10.458;2022-09-16T08:57:02;14.80;99.90
7240;DHT22;3661;53.288;10.458;2022-09-16T08:59:43;15.00;99.90
7240;DHT22;3661;53.288;10.458;2022-09-16T09:02:40;15.10;99.90
7240;DHT22;3661;53.288;10.458;2022-09-16T09:12:37;15.30;99.90
7240;DHT22;3661;53.288;10.458;2022-09-16T09:18:23;15.40;99.90
7240;DHT22;3661;53.288;10.458;2022-09-16T09:21:38;15.40;99.90
7240;DHT22;3661;53.288;10.458;2022-09-16T09:44:46;16.30;99.90
7240;DHT22;3661;53.288;10.458;2022-09-16T09:47:24;16.40;99.90
7240;DHT22;3661;53.288;10.458;2022-09-16T09:50:07;16.50;99.90
7240;DHT22;3661;53.288;10.458;2022-09-16T09:52:47;16.40;99.90
7240;DHT22;3661;53.288;10.458;2022-09-16T09:55:22;16.50;99.90
7240;DHT22;3661;53.288;10.458;2022-09-16T09:58:08;16.50;99.90
7240;DHT22;3661;53.288;10.458;2022-09-16T10:00:49;16.60;99.90
7240;DHT22;3661;53.288;10.458;2022-09-16T10:03:25;16.60;99.90
7240;DHT22;3661;53.288;10.458;2022-09-16T10:05:58;16.50;99.90
7240;DHT22;3661;53.288;10.458;2022-09-16T10:08:43;16.50;99.90
7240;DHT22;3661;53.288;10.458;2022-09-16T10:11:20;16.40;99.90
7240;DHT22;3661;53.288;10.458;2022-09-16T10:13:55;16.40;99.90
7240;DHT22;3661;53.288;10.458;2022-09-16T10:16:46;16.40;99.90
7240;DHT22;3661;53.288;10.458;2022-09-16T10:19:23;16.40;99.90
7240;DHT22;3661;53.288;10.458;2022-09-16T10:22:08;16.30;99.90
7240;DHT22;3661;53.288;10.458;2022-09-16T10:24:41;16.30;99.90
7240;DHT22;3661;53.288;10.458;2022-09-16T10:27:19;16.20;99.90
7240;DHT22;3661;53.288;10.458;2022-09-16T10:30:11;16.10;99.90
7240;DHT22;3661;53.288;10.458;2022-09-16T10:35:57;15.90;99.90
7240;DHT22;3661;53.288;10.458;2022-09-16T10:38:38;15.80;99.90
7240;DHT22;3661;53.288;10.458;2022-09-16T10:41:18;15.70;99.90
7240;DHT22;3661;53.288;10.458;2022-09-16T10:43:59;15.70;99.90
7240;DHT22;3661;53.288;10.458;2022-09-16T10:46:33;15.60;99.90
7240;DHT22;3661;53.288;10.458;2022-09-16T10:49:10;15.60;99.90
7240;DHT22;3661;53.288;10.458;2022-09-16T10:51:45;15.50;99.90
7240;DHT22;3661;53.288;10.458;2022-09-16T10:54:34;15.40;99.90
7240;DHT22;3661;53.288;10.458;2022-09-16T10:57:31;15.30;99.90
7240;DHT22;3661;53.288;10.458;2022-09-16T11:00:38;15.20;99.90
7240;DHT22;3661;53.288;10.458;2022-09-16T11:03:55;15.10;99.90
7240;DHT22;3661;53.288;10.458;2022-09-16T11:06:41;15.00;99.90
7240;DHT22;3661;53.288;10.458;2022-09-16T11:09:40;15.10;99.90
7240;DHT22;3661;53.288;10.458;2022-09-16T11:12:35;15.20;99.90
7240;DHT22;3661;53.288;10.458;2022-09-16T11:15:34;15.30;99.90
7240;DHT22;3661;53.288;10.458;2022-09-16T11:18:23;15.40;99.90
7240;DHT22;3661;53.288;10.458;2022-09-16T11:21:09;15.40;99.90
7240;DHT22;3661;53.288;10.458;2022-09-16T11:23:59;15.50;99.90
7240;DHT22;3661;53.288;10.458;2022-09-16T11:26:50;15.30;99.90
7240;DHT22;3661;53.288;10.458;2022-09-16T11:35:36;15.00;99.90
7240;DHT22;3661;53.288;10.458;2022-09-16T11:38:17;14.90;99.90
7240;DHT22;3661;53.288;10.458;2022-09-16T11:40:57;14.80;99.90
7240;DHT22;3661;53.288;10.458;2022-09-16T11:43:58;14.70;99.90
7240;DHT22;3661;53.288;10.458;2022-09-16T11:46:46;14.60;99.90
7240;DHT22;3661;53.288;10.458;2022-09-16T11:49:41;14.50;99.90
7240;DHT22;3661;53.288;10.458;2022-09-16T11:52:30;14.50;99.90
7240;DHT22;3661;53.288;10.458;2022-09-16T11:55:23;14.60;99.90
7240;DHT22;3661;53.288;10.458;2022-09-16T11:58:20;14.60;99.90
7240;DHT22;3661;53.288;10.458;2022-09-16T12:01:00;14.70;99.90
7240;DHT22;3661;53.288;10.458;2022-09-16T12:03:38;14.70;99.90
7240;DHT22;3661;53.288;10.458;2022-09-16T12:06:16;14.80;99.90
7240;DHT22;3661;53.288;10.458;2022-09-16T12:08:58;14.90;99.90
7240;DHT22;3661;53.288;10.458;2022-09-16T12:11:42;15.00;99.90
7240;DHT22;3661;53.288;10.458;2022-09-16T12:14:27;15.00;99.90
7240;DHT22;3661;53.288;10.458;2022-09-16T12:17:13;15.10;99.90
7240;DHT22;3661;53.288;10.458;2022-09-16T12:19:51;15.20;99.90
7240;DHT22;3661;53.288;10.458;2022-09-16T12:22:30;15.30;99.90
7240;DHT22;3661;53.288;10.458;2022-09-16T12:25:18;15.40;99.90
7240;DHT22;3661;53.288;10.458;2022-09-16T12:28:00;15.40;99.90
7240;DHT22;3661;53.288;10.458;2022-09-16T12:30:37;15.50;99.90
7240;DHT22;3661;53.288;10.458;2022-09-16T12:33:20;15.70;99.90
7240;DHT22;3661;53.288;10.458;2022-09-16T12:39:25;15.80;99.90
7240;DHT22;3661;53.288;10.458;2022-09-16T12:42:16;15.80;99.90
7240;DHT22;3661;53.288;10.458;2022-09-16T12:51:24;15.50;99.90
7240;DHT22;3661;53.288;10.458;2022-09-16T12:54:13;15.30;99.90
7240;DHT22;3661;53.288;10.458;2022-09-16T12:57:09;15.10;99.90
7240;DHT22;3661;53.288;10.458;2022-09-16T13:00:03;15.00;99.90
7240;DHT22;3661;53.288;10.458;2022-09-16T13:02:39;14.90;99.90
7240;DHT22;3661;53.288;10.458;2022-09-16T13:05:19;14.80;99.90
7240;DHT22;3661;53.288;10.458;2022-09-16T13:08:06;14.60;99.90
7240;DHT22;3661;53.288;10.458;2022-09-16T13:17:36;14.50;99.90
7240;DHT22;3661;53.288;10.458;2022-09-16T13:20:15;14.50;99.90
7240;DHT22;3661;53.288;10.458;2022-09-16T13:23:01;14.50;99.90
7240;DHT22;3661;53.288;10.458;2022-09-16T13:25:47;14.60;99.90
7240;DHT22;3661;53.288;10.458;2022-09-16T13:28:33;14.60;99.90
7240;DHT22;3661;53.288;10.458;2022-09-16T13:31:28;14.70;99.90
7240;DHT22;3661;53.288;10.458;2022-09-16T13:34:14;14.80;99.90
7240;DHT22;3661;53.288;10.458;2022-09-16T13:36:52;14.90;99.90
7240;DHT22;3661;53.288;10.458;2022-09-16T13:39:28;14.90;99.90
7240;DHT22;3661;53.288;10.458;2022-09-16T13:42:32;14.90;99.90
7240;DHT22;3661;53.288;10.458;2022-09-16T13:45:41;15.00;99.90
7240;DHT22;3661;53.288;10.458;2022-09-16T13:48:17;15.00;99.90
7240;DHT22;3661;53.288;10.458;2022-09-16T13:50:52;15.10;99.90
7240;DHT22;3661;53.288;10.458;2022-09-16T13:53:29;15.10;99.90
7240;DHT22;3661;53.288;10.458;2022-09-16T13:56:06;15.10;99.90
7240;DHT22;3661;53.288;10.458;2022-09-16T13:58:49;15.00;99.90
7240;DHT22;3661;53.288;10.458;2022-09-16T14:01:30;15.00;99.90
7240;DHT22;3661;53.288;10.458;2022-09-16T14:04:09;14.90;99.90
7240;DHT22;3661;53.288;10.458;2022-09-16T14:06:59;14.80;99.90
7240;DHT22;3661;53.288;10.458;2022-09-16T14:09:44;14.70;99.90
7240;DHT22;3661;53.288;10.458;2022-09-16T14:12:23;14.60;99.90
7240;DHT22;3661;53.288;10.458;2022-09-16T14:14:57;14.50;99.90
7240;DHT22;3661;53.288;10.458;2022-09-16T14:17:35;14.40;99.90
7240;DHT22;3661;53.288;10.458;2022-09-16T14:20:14;14.30;99.90
7240;DHT22;3661;53.288;10.458;2022-09-16T14:22:58;14.30;99.90
7240;DHT22;3661;53.288;10.458;2022-09-16T14:25:33;14.20;99.90
7240;DHT22;3661;53.288;10.458;2022-09-16T14:28:18;14.10;99.90
7240;DHT22;3661;53.288;10.458;2022-09-16T14:30:55;14.10;99.90
7240;DHT22;3661;53.288;10.458;2022-09-16T14:33:30;14.10;99.90
7240;DHT22;3661;53.288;10.458;2022-09-16T14:36:09;14.00;99.90
7240;DHT22;3661;53.288;10.458;2022-09-16T14:38:45;14.00;99.90
7240;DHT22;3661;53.288;10.458;2022-09-16T14:41:23;14.00;99.90
7240;DHT22;3661;53.288;10.458;2022-09-16T14:44:06;14.00;99.90
7240;DHT22;3661;53.288;10.458;2022-09-16T14:46:41;13.90;99.90
7240;DHT22;3661;53.288;10.458;2022-09-16T14:49:15;13.80;99.90
7240;DHT22;3661;53.288;10.458;2022-09-16T14:51:49;13.70;99.90
7240;DHT22;3661;53.288;10.458;2022-09-16T14:54:24;13.70;99.90
7240;DHT22;3661;53.288;10.458;2022-09-16T14:56:59;13.60;99.90
7240;DHT22;3661;53.288;10.458;2022-09-16T14:59:33;13.50;99.90
7240;DHT22;3661;53.288;10.458;2022-09-16T15:02:11;13.40;99.90
7240;DHT22;3661;53.288;10.458;2022-09-16T15:04:49;13.30;99.90
7240;DHT22;3661;53.288;10.458;2022-09-16T15:07:23;13.30;99.90
7240;DHT22;3661;53.288;10.458;2022-09-16T15:10:00;13.20;99.90
7240;DHT22;3661;53.288;10.458;2022-09-16T15:12:43;13.10;99.90
7240;DHT22;3661;53.288;10.458;2022-09-16T15:15:19;13.00;99.90
7240;DHT22;3661;53.288;10.458;2022-09-16T15:17:52;13.00;99.90
7240;DHT22;3661;53.288;10.458;2022-09-16T15:20:27;12.90;99.90
7240;DHT22;3661;53.288;10.458;2022-09-16T15:23:00;12.80;99.90
7240;DHT22;3661;53.288;10.458;2022-09-16T15:25:33;12.80;99.90
7240;DHT22;3661;53.288;10.458;2022-09-16T15:28:16;12.70;99.90
7240;DHT22;3661;53.288;10.458;2022-09-16T15:30:51;12.70;99.90
7240;DHT22;3661;53.288;10.458;2022-09-16T15:33:26;12.60;99.90
7240;DHT22;3661;53.288;10.458;2022-09-16T15:36:03;12.50;99.90
7240;DHT22;3661;53.288;10.458;2022-09-16T15:38:37;12.50;99.90
7240;DHT22;3661;53.288;10.458;2022-09-16T15:41:11;12.40;99.90
7240;DHT22;3661;53.288;10.458;2022-09-16T15:43:48;12.40;99.90
7240;DHT22;3661;53.288;10.458;2022-09-16T15:46:24;12.30;99.90
7240;DHT22;3661;53.288;10.458;2022-09-16T15:49:02;12.30;99.90
7240;DHT22;3661;53.288;10.458;2022-09-16T15:52:10;12.30;99.90
7240;DHT22;3661;53.288;10.458;2022-09-16T15:54:47;12.20;99.90
7240;DHT22;3661;53.288;10.458;2022-09-16T15:57:28;12.20;99.90
7240;DHT22;3661;53.288;10.458;2022-09-16T16:00:11;12.20;99.90
7240;DHT22;3661;53.288;10.458;2022-09-16T16:02:52;12.10;99.90
7240;DHT22;3661;53.288;10.458;2022-09-16T16:05:28;12.10;99.90
7240;DHT22;3661;53.288;10.458;2022-09-16T16:08:07;12.10;99.90
7240;DHT22;3661;53.288;10.458;2022-09-16T16:10:40;12.10;99.90
7240;DHT22;3661;53.288;10.458;2022-09-16T16:13:16;12.00;99.90
7240;DHT22;3661;53.288;10.458;2022-09-16T16:15:54;12.00;99.90
7240;DHT22;3661;53.288;10.458;2022-09-16T16:18:27;12.00;99.90
7240;DHT22;3661;53.288;10.458;2022-09-16T16:21:06;12.00;99.90
7240;DHT22;3661;53.288;10.458;2022-09-16T16:23:41;11.90;99.90
7240;DHT22;3661;53.288;10.458;2022-09-16T16:26:15;11.90;99.90
7240;DHT22;3661;53.288;10.458;2022-09-16T16:28:47;11.90;99.90
7240;DHT22;3661;53.288;10.458;2022-09-16T16:31:23;11.90;99.90
7240;DHT22;3661;53.288;10.458;2022-09-16T16:37:25;11.90;99.90
7240;DHT22;3661;53.288;10.458;2022-09-16T16:40:03;11.90;99.90
7240;DHT22;3661;53.288;10.458;2022-09-16T16:42:36;11.80;99.90
7240;DHT22;3661;53.288;10.458;2022-09-16T16:45:11;11.80;99.90
7240;DHT22;3661;53.288;10.458;2022-09-16T16:47:52;11.80;99.90
7240;DHT22;3661;53.288;10.458;2022-09-16T16:50:39;11.80;99.90
7240;DHT22;3661;53.288;10.458;2022-09-16T16:53:15;11.80;99.90
7240;DHT22;3661;53.288;10.458;2022-09-16T16:55:47;11.80;99.90
7240;DHT22;3661;53.288;10.458;2022-09-16T16:58:20;11.80;99.90
7240;DHT22;3661;53.288;10.458;2022-09-16T17:00:55;11.80;99.90
7240;DHT22;3661;53.288;10.458;2022-09-16T17:03:30;11.80;99.90
7240;DHT22;3661;53.288;10.458;2022-09-16T17:06:03;11.80;99.90
7240;DHT22;3661;53.288;10.458;2022-09-16T17:08:37;11.80;99.90
7240;DHT22;3661;53.288;10.458;2022-09-16T17:11:11;11.80;99.90
7240;DHT22;3661;53.288;10.458;2022-09-16T17:14:03;11.80;99.90
7240;DHT22;3661;53.288;10.458;2022-09-16T17:16:35;11.80;99.90
7240;DHT22;3661;53.288;10.458;2022-09-16T17:19:12;11.80;99.90
7240;DHT22;3661;53.288;10.458;2022-09-16T17:21:46;11.80;99.90
7240;DHT22;3661;53.288;10.458;2022-09-16T17:24:19;11.80;99.90
7240;DHT22;3661;53.288;10.458;2022-09-16T17:26:52;11.80;99.90
7240;DHT22;3661;53.288;10.458;2022-09-16T17:29:35;11.80;99.90
7240;DHT22;3661;53.288;10.458;2022-09-16T17:32:08;11.80;99.90
7240;DHT22;3661;53.288;10.458;2022-09-16T17:35:06;11.80;99.90
7240;DHT22;3661;53.288;10.458;2022-09-16T17:37:39;11.80;99.90
7240;DHT22;3661;53.288;10.458;2022-09-16T17:40:11;11.80;99.90
7240;DHT22;3661;53.288;10.458;2022-09-16T17:42:44;11.80;99.90
7240;DHT22;3661;53.288;10.458;2022-09-16T17:45:16;11.80;99.90
7240;DHT22;3661;53.288;10.458;2022-09-16T17:47:48;11.80;99.90
7240;DHT22;3661;53.288;10.458;2022-09-16T17:50:21;11.80;99.90
7240;DHT22;3661;53.288;10.458;2022-09-16T17:52:54;11.80;99.90
7240;DHT22;3661;53.288;10.458;2022-09-16T17:55:26;11.80;99.90
7240;DHT22;3661;53.288;10.458;2022-09-16T17:57:58;11.80;99.90
7240;DHT22;3661;53.288;10.458;2022-09-16T18:00:32;11.80;99.90
7240;DHT22;3661;53.288;10.458;2022-09-16T18:03:08;11.80;99.90
7240;DHT22;3661;53.288;10.458;2022-09-16T18:05:43;11.80;99.90
7240;DHT22;3661;53.288;10.458;2022-09-16T18:08:16;11.80;99.90
7240;DHT22;3661;53.288;10.458;2022-09-16T18:10:52;11.80;99.90
7240;DHT22;3661;53.288;10.458;2022-09-16T18:13:27;11.80;99.90
7240;DHT22;3661;53.288;10.458;2022-09-16T18:16:06;11.80;99.90
7240;DHT22;3661;53.288;10.458;2022-09-16T18:18:41;11.80;99.90
7240;DHT22;3661;53.288;10.458;2022-09-16T18:21:17;11.80;99.90
7240;DHT22;3661;53.288;10.458;2022-09-16T18:23:53;11.80;99.90